Time;durP1;ratioP1;P1;durP2;ratioP2;P2;SDS_P1;SDS_P2;PMS_P1;PMS_P2;Temp;Humidity;BMP_temperature;BMP_pressure;BME280_temperature;BME280_humidity;BME280_pressure;Samples;Min_cycle;Max_cycle;Signal;HPM_P1;HPM_P2
2021/03/30 00:01:24;;;;;;;8.23;4.55;;;;;;;29.71;20.58;99535.19;5101742;28;20081;-90
2021/03/30 00:03:50;;;;;;;6.38;3.83;;;;;;;29.73;20.40;99536.38;5106248;28;20055;-89
2021/03/30 00:06:16;;;;;;;8.18;4.45;;;;;;;29.61;20.88;99530.56;5097036;28;20399;-89
2021/03/30 00:08:44;;;;;;;5.63;3.85;;;;;;;29.71;20.47;99526.72;5109831;28;20111;-90
2021/03/30 00:11:10;;;;;;;5.70;4.45;;;;;;;29.87;20.31;99532.44;5102097;28;20032;-89
2021/03/30 00:13:37;;;;;;;7.22;3.90;;;;;;;29.91;20.20;99530.31;5090964;28;20051;-89
2021/03/30 00:16:03;;;;;;;6.25;4.22;;;;;;;29.79;20.88;99528.16;5096606;28;20028;-89
2021/03/30 00:18:29;;;;;;;6.00;3.80;;;;;;;29.43;21.30;99530.91;5099500;28;20098;-89
2021/03/30 00:20:56;;;;;;;7.72;4.35;;;;;;;29.16;21.70;99530.25;5103019;28;20107;-90
2021/03/30 00:23:23;;;;;;;6.97;3.95;;;;;;;29.13;21.67;99531.91;5102199;28;20158;-89
2021/03/30 00:25:49;;;;;;;5.65;3.97;;;;;;;28.82;22.48;99524.03;5105030;28;20051;-89
2021/03/30 00:28:15;;;;;;;8.02;4.07;;;;;;;28.48;22.81;99519.34;5110420;28;20459;-89
2021/03/30 00:30:41;;;;;;;7.45;4.30;;;;;;;28.34;22.92;99518.78;5111157;28;20024;-89
2021/03/30 00:33:07;;;;;;;7.32;4.25;;;;;;;28.31;22.81;99514.78;5093847;28;20032;-90
2021/03/30 00:35:33;;;;;;;7.63;4.20;;;;;;;28.53;22.83;99520.88;5095102;28;20036;-89
2021/03/30 00:37:59;;;;;;;6.07;3.97;;;;;;;28.88;22.01;99511.00;5094924;28;20040;-90
2021/03/30 00:40:25;;;;;;;5.80;3.53;;;;;;;29.28;21.19;99512.66;5092144;28;20101;-89
2021/03/30 00:42:56;;;;;;;7.60;3.75;;;;;;;29.56;20.76;99511.25;5105203;28;20039;-89
2021/03/30 00:45:22;;;;;;;5.53;3.15;;;;;;;29.53;20.86;99518.59;5096819;28;20032;-89
2021/03/30 00:47:48;;;;;;;6.25;3.63;;;;;;;29.55;21.05;99516.13;5102757;28;20106;-89
2021/03/30 00:50:19;;;;;;;7.72;3.63;;;;;;;29.68;20.69;99519.06;5113323;28;20050;-89
2021/03/30 00:52:47;;;;;;;4.40;2.95;;;;;;;29.75;20.72;99508.41;5098554;28;20092;-90
2021/03/30 00:55:13;;;;;;;5.45;3.65;;;;;;;29.84;20.58;99511.47;5091313;28;20052;-89
2021/03/30 00:57:40;;;;;;;4.43;3.03;;;;;;;29.91;20.60;99508.47;5092961;28;20075;-89
2021/03/30 01:00:09;;;;;;;4.70;3.13;;;;;;;30.00;20.05;99508.66;5098963;28;20028;-89
2021/03/30 01:02:36;;;;;;;4.88;3.10;;;;;;;30.03;20.45;99507.78;5096949;28;20527;-89
2021/03/30 01:05:05;;;;;;;5.13;3.58;;;;;;;30.08;20.35;99507.22;5106875;28;20114;-89
2021/03/30 01:07:31;;;;;;;5.75;3.53;;;;;;;29.99;20.50;99504.22;5106002;28;20115;-89
2021/03/30 01:10:31;;;;;;;3.97;2.80;;;;;;;29.91;20.53;99499.97;5110347;28;20533;-89
2021/03/30 01:13:12;;;;;;;5.97;3.40;;;;;;;29.66;20.97;99501.75;5099712;28;20082;-89
2021/03/30 01:15:55;;;;;;;3.97;3.03;;;;;;;28.43;22.52;99502.09;5103717;28;20046;-89
2021/03/30 01:18:41;;;;;;;8.80;4.85;;;;;;;26.63;25.31;99505.22;5097498;28;20036;-89
2021/03/30 01:21:13;;;;;;;4.53;3.80;;;;;;;27.22;24.46;99497.38;5103997;28;20028;-89
2021/03/30 01:24:00;;;;;;;4.00;2.63;;;;;;;26.89;25.25;99498.16;5091195;28;20032;-89
2021/03/30 01:26:29;;;;;;;5.70;3.53;;;;;;;27.64;24.02;99492.41;5094620;28;20036;-90
2021/03/30 01:29:12;;;;;;;4.80;3.20;;;;;;;28.30;22.95;99486.97;5095675;28;20066;-90
2021/03/30 01:31:42;;;;;;;4.40;2.67;;;;;;;28.78;22.04;99484.50;5091005;28;20115;-90
2021/03/30 01:34:11;;;;;;;5.43;2.80;;;;;;;29.08;21.60;99495.63;5104409;28;20038;-90
2021/03/30 01:36:40;;;;;;;4.80;3.08;;;;;;;29.41;21.24;99490.94;5103595;28;20081;-89
2021/03/30 01:39:10;;;;;;;5.43;3.35;;;;;;;29.49;21.14;99494.44;5111537;28;20031;-89
2021/03/30 01:41:39;;;;;;;4.63;2.95;;;;;;;29.27;21.38;99500.53;5090866;28;20386;-89
2021/03/30 01:44:07;;;;;;;6.07;3.28;;;;;;;28.96;21.87;99498.31;5089405;28;20032;-89
2021/03/30 01:46:34;;;;;;;4.22;2.83;;;;;;;28.84;22.26;99493.31;5104416;28;20039;-89
2021/03/30 01:49:01;;;;;;;3.72;2.70;;;;;;;28.94;21.83;99495.91;5114107;28;20039;-90
2021/03/30 01:51:29;;;;;;;5.57;3.30;;;;;;;29.21;21.57;99502.28;5104503;28;20356;-90
2021/03/30 01:53:58;;;;;;;5.28;3.10;;;;;;;29.50;21.19;99505.28;5107258;28;20172;-89
2021/03/30 01:56:25;;;;;;;4.95;3.05;;;;;;;29.61;21.30;99500.22;5098347;28;20028;-89
2021/03/30 01:58:52;;;;;;;4.28;3.17;;;;;;;29.70;21.20;99497.59;5070842;28;20033;-89
2021/03/30 02:01:20;;;;;;;5.22;2.88;;;;;;;29.80;20.74;99501.44;5090121;28;20503;-89
2021/03/30 02:03:47;;;;;;;5.90;3.75;;;;;;;29.97;20.54;99494.56;5097228;28;20118;-89
2021/03/30 02:06:14;;;;;;;4.75;3.40;;;;;;;29.96;20.55;99493.78;5105913;28;20499;-89
2021/03/30 02:08:41;;;;;;;4.88;2.78;;;;;;;29.91;20.76;99490.66;5098033;28;20107;-89
2021/03/30 02:11:07;;;;;;;4.68;3.47;;;;;;;29.39;21.65;99491.38;5101730;28;20156;-89
2021/03/30 02:13:42;;;;;;;5.13;2.72;;;;;;;29.35;21.81;99485.00;5104892;28;20055;-89
2021/03/30 02:16:18;;;;;;;5.47;2.65;;;;;;;29.54;20.91;99491.88;5104042;28;20437;-89
2021/03/30 02:19:10;;;;;;;5.10;3.10;;;;;;;29.83;20.73;99477.91;5103345;28;20028;-89
2021/03/30 02:21:48;;;;;;;5.88;2.90;;;;;;;29.88;21.11;99488.69;5091874;28;20040;-89
2021/03/30 02:24:17;;;;;;;3.90;3.10;;;;;;;29.86;20.98;99486.31;5076399;28;20559;-89
2021/03/30 02:26:48;;;;;;;4.60;2.83;;;;;;;29.84;20.93;99479.50;5096263;28;20028;-89
2021/03/30 02:29:17;;;;;;;;;;;;;;;29.61;21.71;99483.25;5093029;28;20487;-89
2021/03/30 02:31:44;;;;;;;4.55;2.78;;;;;;;29.74;21.10;99475.66;5080802;28;19916;-89
2021/03/30 02:34:13;;;;;;;5.65;2.80;;;;;;;29.82;20.84;99474.28;5079890;28;20027;-89
2021/03/30 02:36:41;;;;;;;3.97;2.78;;;;;;;30.01;20.63;99478.28;5099631;28;20032;-89
2021/03/30 02:39:11;;;;;;;4.25;2.88;;;;;;;30.08;20.80;99475.28;5094090;28;20128;-89
2021/03/30 02:41:39;;;;;;;3.70;2.57;;;;;;;29.72;21.41;99474.50;5096187;28;20143;-88
2021/03/30 02:44:08;;;;;;;3.25;2.60;;;;;;;29.65;21.15;99472.63;5103535;28;20078;-89
2021/03/30 02:46:37;;;;;;;6.72;3.00;;;;;;;29.74;21.08;99478.47;5106265;28;20042;-89
2021/03/30 02:49:03;;;;;;;4.03;2.72;;;;;;;29.10;22.43;99479.03;5104466;28;20039;-89
2021/03/30 02:51:31;;;;;;;4.53;2.97;;;;;;;29.33;21.65;99473.34;5105095;28;20020;-89
2021/03/30 02:53:59;;;;;;;4.03;2.00;;;;;;;29.73;21.19;99473.28;5102506;28;20040;-89
2021/03/30 02:56:26;;;;;;;3.45;2.30;;;;;;;30.04;20.88;99477.38;5078922;28;20028;-89
2021/03/30 02:58:53;;;;;;;4.47;2.58;;;;;;;29.95;21.03;99480.84;5091428;28;20484;-89
2021/03/30 03:01:22;;;;;;;3.17;2.60;;;;;;;29.76;20.87;99478.88;5087413;28;20031;-89
2021/03/30 03:03:51;;;;;;;3.65;2.70;;;;;;;29.97;20.94;99481.19;5092553;28;20032;-89
2021/03/30 03:06:18;;;;;;;3.17;2.33;;;;;;;30.16;20.63;99475.88;5091907;28;20028;-89
2021/03/30 03:08:47;;;;;;;3.22;2.08;;;;;;;30.28;20.37;99469.53;5091159;28;20040;-89
2021/03/30 03:11:15;;;;;;;2.10;1.70;;;;;;;30.27;20.58;99457.38;5091715;28;20038;-89
2021/03/30 03:13:43;;;;;;;3.40;2.75;;;;;;;30.29;20.60;99460.59;5080916;28;20495;-89
2021/03/30 03:16:12;;;;;;;3.85;2.92;;;;;;;29.71;21.09;99470.84;5089294;28;20028;-90
2021/03/30 03:18:41;;;;;;;2.50;2.10;;;;;;;29.30;21.33;99473.41;5082139;28;20024;-89
2021/03/30 03:21:08;;;;;;;4.65;3.15;;;;;;;29.27;21.51;99468.59;5087665;28;20387;-88
2021/03/30 03:23:40;;;;;;;2.88;2.60;;;;;;;29.64;20.78;99471.03;5091417;28;20036;-88
2021/03/30 03:26:08;;;;;;;3.33;2.67;;;;;;;30.03;20.37;99459.63;5092675;28;20082;-88
2021/03/30 03:28:39;;;;;;;3.33;2.33;;;;;;;30.26;20.46;99469.97;5090868;28;20042;-87
2021/03/30 03:31:06;;;;;;;4.50;2.65;;;;;;;30.46;20.18;99459.34;5089568;28;20036;-88
2021/03/30 03:33:32;;;;;;;2.88;1.88;;;;;;;30.51;20.13;99458.81;5078398;28;20040;-88
2021/03/30 03:36:09;;;;;;;2.47;2.13;;;;;;;30.38;20.10;99449.44;5091845;28;20020;-88
2021/03/30 03:38:37;;;;;;;3.10;2.63;;;;;;;30.37;19.96;99456.34;5090764;28;20040;-88
2021/03/30 03:41:06;;;;;;;2.47;2.03;;;;;;;30.26;20.43;99455.81;5091185;28;20040;-89
2021/03/30 03:43:33;;;;;;;3.90;2.47;;;;;;;30.06;20.33;99457.91;5087607;28;20055;-89
2021/03/30 03:45:59;;;;;;;2.80;2.50;;;;;;;30.03;20.61;99453.16;5086642;28;20388;-89
2021/03/30 03:48:26;;;;;;;3.85;2.05;;;;;;;29.86;20.89;99454.38;5083748;28;20063;-89
2021/03/30 03:50:57;;;;;;;3.45;2.78;;;;;;;29.34;21.68;99460.78;5086979;28;20028;-89
2021/03/30 03:53:25;;;;;;;2.78;2.40;;;;;;;29.16;21.95;99463.16;5090717;28;20060;-89
2021/03/30 03:55:54;;;;;;;2.47;1.75;;;;;;;28.88;22.23;99458.06;5091337;28;20040;-89
2021/03/30 03:58:26;;;;;;;2.67;2.20;;;;;;;29.22;21.30;99458.59;5089980;28;20028;-90
2021/03/30 04:00:52;;;;;;;2.20;1.73;;;;;;;29.56;21.14;99455.44;5073619;28;20033;-89
2021/03/30 04:03:24;;;;;;;2.85;2.10;;;;;;;29.80;20.72;99464.63;5090140;28;20028;-89
2021/03/30 04:06:14;;;;;;;3.60;2.38;;;;;;;29.93;20.94;99449.34;5078561;28;20028;-89
2021/03/30 04:08:51;;;;;;;2.35;2.15;;;;;;;30.11;20.62;99460.22;5088759;28;20089;-89
2021/03/30 04:11:19;;;;;;;3.08;2.30;;;;;;;30.02;20.84;99457.22;5084875;28;20028;-88
2021/03/30 04:13:47;;;;;;;2.15;1.90;;;;;;;29.82;21.10;99459.31;5068948;28;20492;-89
2021/03/30 04:16:14;;;;;;;2.63;2.05;;;;;;;29.62;21.26;99455.72;5100785;28;20100;-89
2021/03/30 04:18:42;;;;;;;2.47;1.85;;;;;;;29.35;21.73;99458.75;5079116;28;20472;-89
2021/03/30 04:21:20;;;;;;;2.40;2.20;;;;;;;29.05;22.04;99462.59;5069459;28;20032;-88
2021/03/30 04:23:47;;;;;;;2.25;2.00;;;;;;;28.97;22.01;99458.28;5094620;28;20036;-88
2021/03/30 04:26:13;;;;;;;2.25;2.05;;;;;;;29.21;21.63;99459.03;5087793;28;20036;-88
2021/03/30 04:28:40;;;;;;;2.75;2.30;;;;;;;29.58;20.96;99455.00;5098078;28;20554;-88
2021/03/30 04:31:06;;;;;;;3.80;2.33;;;;;;;29.78;21.14;99453.72;5097334;28;20502;-89
2021/03/30 04:33:32;;;;;;;2.70;2.28;;;;;;;29.27;22.03;99454.47;5101494;28;20111;-88
2021/03/30 04:35:59;;;;;;;2.47;2.15;;;;;;;28.73;22.28;99454.72;5093045;28;20502;-88
2021/03/30 04:38:25;;;;;;;4.40;2.17;;;;;;;28.37;22.93;99469.91;5100420;28;20029;-88
2021/03/30 04:40:54;;;;;;;2.25;2.05;;;;;;;28.39;22.83;99467.44;5091885;28;20074;-88
2021/03/30 04:43:23;;;;;;;2.55;2.10;;;;;;;28.84;21.96;99465.03;5086283;28;20024;-88
2021/03/30 04:45:50;;;;;;;3.30;2.25;;;;;;;29.08;22.05;99470.19;5091320;28;20259;-89
2021/03/30 04:48:16;;;;;;;3.15;2.38;;;;;;;29.43;21.41;99463.81;5091507;28;20024;-86
2021/03/30 04:50:44;;;;;;;2.20;2.00;;;;;;;29.74;21.03;99457.84;5079669;28;20025;-86
2021/03/30 04:53:10;;;;;;;2.60;1.88;;;;;;;30.04;20.83;99460.41;5095145;28;20024;-90
2021/03/30 04:55:37;;;;;;;3.45;2.90;;;;;;;29.98;20.87;99465.81;5097656;28;20088;-89
2021/03/30 04:58:04;;;;;;;3.25;2.53;;;;;;;29.79;21.24;99465.88;5092367;28;20025;-89
2021/03/30 05:00:30;;;;;;;3.58;2.90;;;;;;;29.48;21.89;99462.50;5093606;28;20395;-87
2021/03/30 05:02:56;;;;;;;3.42;2.97;;;;;;;29.03;22.46;99464.25;5082545;28;20039;-88
2021/03/30 05:05:23;;;;;;;4.13;2.90;;;;;;;28.49;23.46;99467.28;5087471;28;20036;-88
2021/03/30 05:07:49;;;;;;;3.80;3.03;;;;;;;28.54;23.42;99457.50;5098464;28;20028;-88
2021/03/30 05:10:15;;;;;;;3.17;2.60;;;;;;;28.85;22.65;99464.59;5095278;28;20089;-86
2021/03/30 05:12:42;;;;;;;3.38;2.67;;;;;;;29.22;22.04;99469.91;5096624;28;20135;-86
2021/03/30 05:15:09;;;;;;;3.35;2.50;;;;;;;29.65;21.54;99474.66;5092837;28;20032;-89
2021/03/30 05:17:35;;;;;;;3.58;2.53;;;;;;;30.00;21.01;99473.84;5080709;28;20543;-90
2021/03/30 05:20:04;;;;;;;3.15;2.55;;;;;;;30.21;20.94;99470.50;5091791;28;20028;-89
2021/03/30 05:22:31;;;;;;;2.30;2.10;;;;;;;30.23;20.76;99476.50;5082538;28;20059;-88
2021/03/30 05:24:57;;;;;;;3.30;2.40;;;;;;;29.72;21.33;99483.78;5082158;28;20077;-95
2021/03/30 05:27:23;;;;;;;3.63;2.75;;;;;;;29.58;21.79;99478.44;5079165;28;20034;-90
2021/03/30 05:29:49;;;;;;;3.88;2.20;;;;;;;29.77;21.39;99474.00;5072501;28;20510;-88
2021/03/30 05:32:17;;;;;;;1.85;1.52;;;;;;;29.82;21.47;99474.28;5080418;28;20491;-87
2021/03/30 05:34:51;;;;;;;2.42;2.05;;;;;;;29.89;21.58;99481.81;5084963;28;20043;-88
2021/03/30 05:37:17;;;;;;;3.88;2.75;;;;;;;30.01;21.56;99481.91;5080708;28;20547;-88
2021/03/30 05:39:44;;;;;;;4.10;2.65;;;;;;;29.98;21.42;99482.00;5094193;28;20111;-88
2021/03/30 05:42:13;;;;;;;4.35;2.90;;;;;;;30.02;21.55;99479.88;5091453;28;20387;-88
2021/03/30 05:44:40;;;;;;;3.30;2.70;;;;;;;29.86;21.70;99483.50;5080983;28;20028;-88
2021/03/30 05:49:36;;;;;;;3.38;2.50;;;;;;;30.07;21.51;99482.19;5089068;28;20131;-87
2021/03/30 05:52:06;;;;;;;4.20;2.70;;;;;;;30.24;21.25;99480.97;5089662;28;20044;-88
2021/03/30 05:54:35;;;;;;;3.85;2.75;;;;;;;30.43;21.22;99482.13;5083494;28;20032;-88
2021/03/30 05:57:05;;;;;;;4.82;3.53;;;;;;;30.41;20.91;99495.94;5091387;28;20032;-88
2021/03/30 05:59:35;;;;;;;4.05;3.30;;;;;;;30.24;21.33;99485.81;5079982;28;20032;-88
2021/03/30 06:02:05;;;;;;;3.63;2.80;;;;;;;30.10;21.69;99498.31;5081442;28;20028;-88
2021/03/30 06:04:32;;;;;;;4.47;3.23;;;;;;;29.66;22.09;99496.06;5091023;28;20055;-88
2021/03/30 06:06:58;;;;;;;4.13;2.83;;;;;;;29.45;22.73;99499.38;5077790;28;20074;-88
2021/03/30 06:09:24;;;;;;;6.47;3.25;;;;;;;29.54;22.29;99500.38;5088970;28;20035;-88
2021/03/30 06:11:50;;;;;;;4.22;3.22;;;;;;;29.36;22.89;99506.41;5092573;28;20056;-88
2021/03/30 06:14:37;;;;;;;3.83;3.35;;;;;;;29.36;22.72;99500.75;5074495;28;20480;-88
2021/03/30 06:17:04;;;;;;;8.02;3.80;;;;;;;29.72;22.25;99506.44;5059699;28;20044;-88
2021/03/30 06:19:45;;;;;;;5.65;3.72;;;;;;;29.69;22.33;99500.84;5063332;28;20032;-88
2021/03/30 06:22:11;;;;;;;4.15;3.28;;;;;;;29.95;22.05;99505.53;5065479;28;20033;-88
2021/03/30 06:24:37;;;;;;;4.78;3.17;;;;;;;30.32;21.80;99505.03;5056312;28;20044;-88
2021/03/30 06:27:06;;;;;;;5.25;3.47;;;;;;;29.99;22.11;99512.69;5072470;28;20029;-88
2021/03/30 06:29:43;;;;;;;4.50;3.53;;;;;;;29.51;22.71;99520.25;5069493;28;20036;-88
2021/03/30 06:32:14;;;;;;;3.17;2.88;;;;;;;29.60;22.66;99514.78;5073788;28;20101;-88
2021/03/30 06:34:43;;;;;;;6.18;2.90;;;;;;;29.53;22.84;99515.75;5074400;28;20134;-88
2021/03/30 06:37:28;;;;;;;6.15;5.07;;;;;;;29.82;22.35;99522.44;5063611;28;20054;-88
2021/03/30 06:39:56;;;;;;;7.00;5.55;;;;;;;30.27;22.01;99522.56;5049180;28;20473;-88
2021/03/30 06:45:19;;;;;;;4.90;3.97;;;;;;;30.86;21.36;99515.81;5054323;28;20106;-88
2021/03/30 06:47:49;;;;;;;4.38;3.50;;;;;;;31.03;20.99;99520.22;5051501;28;20029;-88
2021/03/30 06:50:28;;;;;;;4.53;3.85;;;;;;;31.08;21.12;99523.34;5054358;28;20065;-89
2021/03/30 06:52:56;;;;;;;5.13;4.30;;;;;;;31.22;21.00;99533.50;5058723;28;20048;-88
2021/03/30 06:55:28;;;;;;;6.28;5.03;;;;;;;31.27;21.01;99533.72;5069371;28;20115;-88
2021/03/30 06:58:04;;;;;;;5.18;4.65;;;;;;;31.28;21.23;99534.50;5067552;28;20110;-88
2021/03/30 07:00:33;;;;;;;5.85;4.03;;;;;;;31.21;21.35;99537.56;5072852;28;20047;-88
2021/03/30 07:03:14;;;;;;;5.93;4.60;;;;;;;31.04;21.69;99539.63;5060067;28;20036;-88
2021/03/30 07:05:43;;;;;;;4.85;3.83;;;;;;;31.02;21.57;99544.16;5048578;28;20063;-89
2021/03/30 07:08:11;;;;;;;4.53;3.85;;;;;;;30.82;21.99;99538.59;5040328;28;20119;-87
2021/03/30 07:10:40;;;;;;;8.05;6.55;;;;;;;30.78;22.29;99537.91;5039565;28;20039;-84
2021/03/30 07:13:08;;;;;;;5.68;3.70;;;;;;;30.12;22.97;99546.00;5068223;28;20113;-85
2021/03/30 07:15:34;;;;;;;6.18;5.05;;;;;;;29.82;23.49;99544.28;5068045;28;20064;-86
2021/03/30 07:18:22;;;;;;;4.85;3.58;;;;;;;30.11;22.82;99542.38;5070218;28;20099;-87
2021/03/30 07:21:00;;;;;;;3.97;2.92;;;;;;;30.38;22.47;99551.47;5062258;28;20107;-88
2021/03/30 07:23:31;;;;;;;3.88;2.75;;;;;;;30.25;22.66;99544.88;5061479;28;20488;-87
2021/03/30 07:26:04;;;;;;;;;;;;;;;30.06;23.18;99545.72;5060923;28;20060;-87
2021/03/30 07:28:37;;;;;;;5.00;3.78;;;;;;;30.50;22.49;99547.16;5068808;28;20025;-89
2021/03/30 07:31:07;;;;;;;5.18;2.90;;;;;;;30.76;22.07;99541.16;5063769;28;20032;-87
2021/03/30 07:33:41;;;;;;;6.28;3.10;;;;;;;30.81;22.04;99547.56;5070459;28;20074;-88
2021/03/30 07:36:09;;;;;;;6.57;3.90;;;;;;;30.51;22.49;99541.03;5071621;28;20114;-87
2021/03/30 07:38:59;;;;;;;4.95;4.25;;;;;;;30.15;23.11;99550.81;5069956;28;20060;-88
2021/03/30 07:41:25;;;;;;;5.07;3.70;;;;;;;29.97;23.19;99552.00;5063043;28;20032;-88
2021/03/30 07:43:52;;;;;;;5.15;4.35;;;;;;;29.68;23.72;99556.69;5058216;28;20059;-88
2021/03/30 07:46:20;;;;;;;4.07;3.30;;;;;;;29.64;23.88;99553.13;5058371;28;20428;-88
2021/03/30 07:48:47;;;;;;;4.55;3.08;;;;;;;29.92;23.67;99555.34;5068442;28;20047;-88
2021/03/30 07:51:20;;;;;;;6.18;3.70;;;;;;;30.08;23.07;99555.38;5065218;28;20035;-88
2021/03/30 07:53:52;;;;;;;6.13;3.05;;;;;;;30.50;22.59;99549.97;5068144;28;20044;-88
2021/03/30 07:56:24;;;;;;;6.90;4.43;;;;;;;30.07;23.12;99556.63;5065262;28;20122;-88
2021/03/30 07:58:52;;;;;;;5.32;4.60;;;;;;;29.69;23.99;99548.97;5060885;28;20028;-88
2021/03/30 08:01:21;;;;;;;5.78;4.22;;;;;;;29.58;23.83;99554.06;5066129;28;20025;-89
2021/03/30 08:03:50;;;;;;;4.80;3.40;;;;;;;29.76;23.77;99554.50;5067424;28;20037;-88
2021/03/30 08:06:20;;;;;;;5.60;4.32;;;;;;;29.89;23.53;99555.44;5064115;28;20028;-88
2021/03/30 08:09:09;;;;;;;5.22;4.00;;;;;;;29.82;23.72;99553.59;5061766;28;20091;-88
2021/03/30 08:11:46;;;;;;;6.53;4.70;;;;;;;29.73;24.18;99552.53;5066902;28;20242;-88
2021/03/30 08:14:33;;;;;;;6.78;4.45;;;;;;;29.65;24.23;99559.56;5079408;28;20489;-88
2021/03/30 08:17:01;;;;;;;7.00;5.03;;;;;;;29.73;24.41;99561.84;5077893;28;20029;-88
2021/03/30 08:19:28;;;;;;;4.95;4.45;;;;;;;29.74;24.35;99559.78;5078805;28;20395;-88
2021/03/30 08:21:55;;;;;;;4.78;4.00;;;;;;;29.87;24.43;99560.75;5080290;28;20308;-88
2021/03/30 08:24:23;;;;;;;6.65;4.85;;;;;;;30.18;24.30;99555.59;5081350;28;20039;-88
2021/03/30 08:26:49;;;;;;;5.30;3.65;;;;;;;30.62;23.87;99552.09;5065067;28;20044;-88
2021/03/30 08:29:22;;;;;;;10.90;7.47;;;;;;;29.77;24.57;99558.94;5079078;28;20032;-88
2021/03/30 08:31:50;;;;;;;5.97;5.00;;;;;;;29.96;24.35;99555.28;5083464;28;20131;-87
2021/03/30 08:34:26;;;;;;;5.65;4.55;;;;;;;30.41;23.99;99550.56;5065998;28;20115;-86
2021/03/30 08:36:58;;;;;;;6.53;5.18;;;;;;;30.68;24.17;99553.97;5085127;28;20032;-88
2021/03/30 08:39:24;;;;;;;8.45;6.35;;;;;;;30.45;23.63;99556.19;5068730;28;20123;-88
2021/03/30 08:41:57;;;;;;;7.60;5.80;;;;;;;30.44;24.16;99563.88;5085254;28;20053;-88
2021/03/30 08:44:50;;;;;;;9.35;6.68;;;;;;;30.49;24.24;99552.00;5089675;28;20038;-88
2021/03/30 08:47:25;;;;;;;9.77;6.53;;;;;;;30.99;24.12;99547.91;5084437;28;20147;-88
2021/03/30 08:49:51;;;;;;;8.45;6.47;;;;;;;31.24;23.57;99545.97;5084174;28;20040;-88
2021/03/30 08:52:18;;;;;;;6.85;4.93;;;;;;;31.60;22.74;99550.69;5064640;28;20025;-88
2021/03/30 08:54:53;;;;;;;8.10;3.58;;;;;;;31.85;23.53;99543.00;5083530;28;20166;-88
2021/03/30 08:57:31;;;;;;;3.70;3.35;;;;;;;32.20;23.58;99540.31;5078923;28;20043;-87
2021/03/30 09:00:00;;;;;;;4.47;3.38;;;;;;;32.51;22.70;99544.19;5070099;28;20128;-88
2021/03/30 09:02:27;;;;;;;4.50;3.25;;;;;;;32.61;22.73;99545.84;5079891;28;20036;-88
2021/03/30 09:04:55;;;;;;;5.65;3.63;;;;;;;32.72;22.48;99544.22;5079478;28;20146;-88
2021/03/30 09:07:22;;;;;;;4.30;2.83;;;;;;;32.80;22.91;99535.47;5083832;28;20032;-87
2021/03/30 09:09:49;;;;;;;7.05;4.35;;;;;;;32.39;22.03;99542.13;5087361;28;20106;-88
2021/03/30 09:12:18;;;;;;;7.47;3.97;;;;;;;31.97;22.92;99541.44;5077312;28;20048;-88
2021/03/30 09:14:58;;;;;;;4.03;3.00;;;;;;;32.17;22.92;99556.22;5065135;28;20504;-87
2021/03/30 09:17:25;;;;;;;4.10;3.30;;;;;;;32.05;22.71;99549.28;5068483;28;20065;-86
2021/03/30 09:19:51;;;;;;;3.88;3.05;;;;;;;32.07;22.39;99554.50;5065811;28;20068;-88
2021/03/30 09:27:40;;;;;;;4.00;2.78;;;;;;;32.56;22.26;99549.28;5054568;28;20040;-88
2021/03/30 09:30:13;;;;;;;3.95;2.90;;;;;;;32.62;22.24;99547.47;5061155;28;20032;-88
2021/03/30 09:32:41;;;;;;;5.03;2.65;;;;;;;32.50;22.47;99557.59;5057767;28;20029;-88
2021/03/30 09:35:14;;;;;;;4.00;2.75;;;;;;;32.53;22.50;99559.53;5063295;28;20028;-89
2021/03/30 09:37:45;;;;;;;3.58;2.63;;;;;;;32.56;22.55;99549.28;5054893;28;20029;-89
2021/03/30 09:40:15;;;;;;;4.13;2.67;;;;;;;32.74;22.41;99552.34;5056199;28;20029;-89
2021/03/30 09:42:42;;;;;;;6.22;2.58;;;;;;;33.09;22.26;99548.28;5061691;28;20036;-90
2021/03/30 09:45:14;;;;;;;4.65;2.72;;;;;;;33.24;21.47;99557.88;5059478;28;20085;-88
2021/03/30 09:47:41;;;;;;;3.88;2.88;;;;;;;33.28;21.71;99554.91;5042072;28;20115;-89
2021/03/30 09:50:09;;;;;;;12.75;5.95;;;;;;;32.88;21.73;99551.03;5064485;28;20028;-88
2021/03/30 09:52:37;;;;;;;11.93;7.68;;;;;;;31.60;23.02;99554.28;5069266;28;20089;-88
2021/03/30 09:55:05;;;;;;;6.60;3.10;;;;;;;31.84;23.26;99558.44;5047659;28;20495;-88
2021/03/30 09:57:32;;;;;;;4.15;3.10;;;;;;;32.23;23.25;99553.63;5059222;28;20093;-88
2021/03/30 09:59:59;;;;;;;7.45;4.47;;;;;;;32.11;22.52;99552.38;5067070;28;20040;-88
2021/03/30 10:02:34;;;;;;;5.35;3.67;;;;;;;32.07;22.69;99558.16;5059794;28;20694;-91
2021/03/30 10:05:06;;;;;;;6.05;3.65;;;;;;;31.72;23.18;99558.41;5062577;28;20036;-88
2021/03/30 10:07:37;;;;;;;6.55;3.17;;;;;;;31.98;23.61;99552.34;5048166;28;20078;-89
2021/03/30 10:10:11;;;;;;;5.60;3.67;;;;;;;31.87;23.55;99551.84;5060916;28;20029;-88
2021/03/30 10:12:55;;;;;;;5.97;4.40;;;;;;;31.97;23.52;99544.28;5056884;28;20404;-88
2021/03/30 10:15:41;;;;;;;6.97;3.60;;;;;;;31.90;23.57;99550.94;5040779;28;20650;-88
2021/03/30 10:18:10;;;;;;;7.70;5.25;;;;;;;31.51;23.87;99550.53;5061520;28;20380;-88
2021/03/30 10:20:43;;;;;;;4.95;3.40;;;;;;;31.52;24.49;99555.75;5062412;28;20268;-88
2021/03/30 10:23:22;;;;;;;5.40;3.45;;;;;;;31.83;24.43;99541.84;5061418;28;20115;-88
2021/03/30 10:25:48;;;;;;;6.40;3.42;;;;;;;32.06;23.75;99544.41;5064465;28;20036;-87
2021/03/30 10:28:24;;;;;;;6.18;4.25;;;;;;;32.07;23.49;99543.94;5059118;28;20040;-88
2021/03/30 10:30:55;;;;;;;6.68;3.53;;;;;;;32.08;24.15;99544.75;5059325;28;20028;-88
2021/03/30 10:33:42;;;;;;;5.90;3.85;;;;;;;32.43;23.79;99545.63;5061160;28;20037;-87
2021/03/30 10:36:13;;;;;;;7.72;5.05;;;;;;;32.11;23.54;99546.69;5053790;28;20107;-88
2021/03/30 10:38:41;;;;;;;5.93;4.07;;;;;;;32.24;23.63;99546.66;5065121;28;20388;-87
2021/03/30 10:41:10;;;;;;;4.85;3.88;;;;;;;32.27;23.13;99543.72;5067523;28;20119;-88
2021/03/30 10:43:36;;;;;;;5.90;4.13;;;;;;;32.58;23.62;99549.63;5055042;28;20049;-87
2021/03/30 10:46:18;;;;;;;5.00;3.53;;;;;;;32.94;22.78;99538.59;5060834;28;20032;-87
2021/03/30 10:49:07;;;;;;;6.50;4.05;;;;;;;32.54;21.75;99544.06;5042794;28;20504;-87
2021/03/30 10:51:35;;;;;;;7.68;4.40;;;;;;;31.97;23.50;99547.91;5059594;28;20037;-87
2021/03/30 10:54:03;;;;;;;4.95;4.25;;;;;;;31.81;23.80;99547.19;5061064;28;20059;-88
2021/03/30 10:56:31;;;;;;;4.95;3.35;;;;;;;32.02;23.82;99552.25;5053329;28;20037;-87
2021/03/30 10:58:57;;;;;;;5.70;3.90;;;;;;;32.48;23.21;99542.22;5063729;28;20037;-87
2021/03/30 11:01:23;;;;;;;9.48;4.35;;;;;;;32.48;23.34;99537.34;5047335;28;20420;-87
2021/03/30 11:03:50;;;;;;;7.53;4.30;;;;;;;32.68;23.17;99542.78;5060635;28;20112;-87
2021/03/30 11:06:16;;;;;;;4.75;3.28;;;;;;;32.72;23.01;99543.47;5061352;28;20033;-87
2021/03/30 11:08:42;;;;;;;6.25;4.40;;;;;;;32.95;23.21;99543.06;5059215;28;20041;-92
2021/03/30 11:11:09;;;;;;;6.50;4.03;;;;;;;32.93;22.20;99542.69;5016125;28;20029;-88
2021/03/30 11:13:36;;;;;;;4.20;3.80;;;;;;;32.98;22.41;99547.03;5075932;28;20043;-87
2021/03/30 11:16:03;;;;;;;4.93;4.15;;;;;;;33.21;22.30;99543.78;5064697;28;20391;-85
2021/03/30 11:18:29;;;;;;;7.00;4.68;;;;;;;33.32;22.12;99542.13;5078491;28;20028;-86
2021/03/30 11:20:55;;;;;;;6.80;3.88;;;;;;;33.44;21.91;99538.41;5080745;28;20068;-86
2021/03/30 11:23:22;;;;;;;18.52;7.60;;;;;;;33.37;22.57;99541.50;5085456;28;20387;-89
2021/03/30 11:25:48;;;;;;;13.73;7.45;;;;;;;33.38;22.29;99540.28;5075719;28;20107;-89
2021/03/30 11:28:15;;;;;;;10.45;6.22;;;;;;;33.61;22.17;99539.03;5081895;28;20067;-84
2021/03/30 11:30:45;;;;;;;10.07;6.88;;;;;;;33.54;21.60;99538.53;5082364;28;20036;-86
2021/03/30 11:33:21;;;;;;;;;;;;;;;33.11;22.02;99537.22;5084286;28;20027;-87
2021/03/30 11:35:55;;;;;;;7.68;3.95;;;;;;;33.09;22.39;99534.03;5078957;28;19916;-86
2021/03/30 11:38:21;;;;;;;6.65;4.40;;;;;;;33.19;22.70;99529.19;5081770;28;20026;-86
2021/03/30 11:40:48;;;;;;;8.38;4.95;;;;;;;33.39;22.26;99524.78;5085657;28;20032;-87
2021/03/30 11:43:14;;;;;;;6.22;4.38;;;;;;;33.43;22.75;99522.59;5074836;28;20110;-87
2021/03/30 11:45:40;;;;;;;6.85;3.97;;;;;;;33.66;21.94;99520.53;5070319;28;20036;-86
2021/03/30 11:48:07;;;;;;;7.30;4.57;;;;;;;33.81;22.67;99515.88;5064449;28;20032;-87
2021/03/30 11:50:33;;;;;;;5.15;3.70;;;;;;;34.02;22.58;99510.13;5083277;28;20108;-87
2021/03/30 11:53:00;;;;;;;10.07;5.15;;;;;;;34.13;21.34;99509.72;5072369;28;20384;-86
2021/03/30 11:55:27;;;;;;;5.57;3.65;;;;;;;33.99;22.15;99510.25;5086198;28;20079;-86
2021/03/30 11:57:54;;;;;;;7.50;3.92;;;;;;;33.90;22.86;99513.06;5085955;28;20035;-86